Lodgepole, Nebraska
Current Conditions -  °F | °C
As of 1:53 AM on Wednesday 26 Nov 2014 (Local Time) from KSNY Reporting Station
Overcast Overcast  
Wind Chill: 16°   Ceiling: 8000
Heat Index: 29°   Visibility: 10mi
Dew Point: 24°   Wind: 20mph
Humidity: 82%   Direction: 340°NNW
Pressure: 30.08"   Gusts: 28mph
Location:  41.15°N, 102.64°W
Report Text: KSNY 260853Z AUTO 34017G24KT 10SM OVC080 M02/M04 A3008 RMK AO2 SLP196 T10171044 51011
Loading
Personal Weather Stations






























Interactive Weather Map New forecast layout! Learn more

10-Day Weather Forecast

Advertisements
Track Severe Weather on mobile